createdAt,value
2019-05-07T00:00:35.823Z,0.00
2019-05-07T00:01:35.806Z,0.00
2019-05-07T00:02:35.798Z,0.00
2019-05-07T00:03:35.808Z,0.00
2019-05-07T00:04:35.786Z,0.00
2019-05-07T00:05:35.763Z,0.00
2019-05-07T00:06:35.753Z,0.00
2019-05-07T00:07:35.753Z,0.00
2019-05-07T00:08:35.729Z,0.00
2019-05-07T00:09:35.730Z,0.00
2019-05-07T00:10:35.708Z,0.00
2019-05-07T00:11:35.692Z,0.00
2019-05-07T00:12:35.685Z,0.00
2019-05-07T00:13:35.678Z,0.00
2019-05-07T00:14:35.670Z,0.00
2019-05-07T00:15:35.649Z,0.00
2019-05-07T00:16:35.654Z,0.00
2019-05-07T00:17:35.634Z,0.00
2019-05-07T00:18:35.620Z,0.00
2019-05-07T00:19:35.616Z,0.00
2019-05-07T00:20:35.594Z,0.00
2019-05-07T00:21:35.585Z,0.00
2019-05-07T00:22:35.567Z,0.00
2019-05-07T00:23:35.558Z,0.00
2019-05-07T00:24:35.559Z,0.00
2019-05-07T00:25:35.541Z,0.00
2019-05-07T00:26:35.533Z,0.00
2019-05-07T00:27:35.536Z,0.00
2019-05-07T00:28:35.501Z,0.00
2019-05-07T00:29:35.523Z,0.00
2019-05-07T00:30:35.492Z,0.00
2019-05-07T00:31:35.472Z,0.00
2019-05-07T00:32:35.462Z,0.00
2019-05-07T00:33:35.450Z,0.00
2019-05-07T00:34:35.439Z,0.00
2019-05-07T00:35:35.444Z,0.00
2019-05-07T00:36:35.412Z,0.00
2019-05-07T00:37:35.402Z,0.00
2019-05-07T00:38:35.389Z,0.00
2019-05-07T00:39:35.405Z,0.00
2019-05-07T00:40:35.373Z,0.00
2019-05-07T00:41:35.378Z,0.00
2019-05-07T00:42:35.355Z,0.00
2019-05-07T00:43:35.346Z,0.00
2019-05-07T00:44:35.332Z,0.00
2019-05-07T00:45:35.315Z,0.00
2019-05-07T00:46:35.320Z,0.00
2019-05-07T00:47:35.290Z,0.00
2019-05-07T00:48:35.285Z,0.00
2019-05-07T00:49:35.265Z,0.00
2019-05-07T00:50:35.262Z,0.00
2019-05-07T00:51:35.253Z,0.00
2019-05-07T00:52:35.251Z,0.00
2019-05-07T00:53:35.227Z,0.00
2019-05-07T00:54:35.218Z,0.00
2019-05-07T00:55:35.204Z,0.00
2019-05-07T00:56:35.205Z,0.00
2019-05-07T00:57:35.182Z,0.00
2019-05-07T00:58:35.176Z,0.00
2019-05-07T00:59:35.167Z,0.00
2019-05-07T01:00:35.144Z,0.00
2019-05-07T01:01:35.167Z,0.00
2019-05-07T01:02:35.128Z,0.00
2019-05-07T01:03:35.118Z,0.00
2019-05-07T01:04:35.105Z,0.00
2019-05-07T01:05:35.104Z,0.00
2019-05-07T01:06:35.078Z,0.00
2019-05-07T01:07:35.093Z,0.00
2019-05-07T01:08:35.060Z,0.00
2019-05-07T01:09:35.059Z,0.00
2019-05-07T01:10:35.042Z,0.00
2019-05-07T01:11:35.024Z,0.00
2019-05-07T01:12:35.016Z,0.00
2019-05-07T01:13:35.008Z,0.00
2019-05-07T01:14:35.000Z,0.00
2019-05-07T01:15:34.992Z,0.00
2019-05-07T01:16:34.980Z,0.00
2019-05-07T01:17:34.980Z,0.00
2019-05-07T01:18:34.951Z,0.00
2019-05-07T01:19:34.936Z,0.00
2019-05-07T01:20:34.926Z,0.00
2019-05-07T01:21:34.919Z,0.00
2019-05-07T01:22:34.902Z,0.00
2019-05-07T01:23:34.909Z,0.00
2019-05-07T01:24:34.894Z,0.00
2019-05-07T01:25:34.866Z,0.00
2019-05-07T01:26:34.861Z,0.00
2019-05-07T01:27:34.859Z,0.00
2019-05-07T01:28:34.881Z,0.00
2019-05-07T01:29:34.822Z,0.00
2019-05-07T01:30:34.827Z,0.00
2019-05-07T01:31:34.804Z,0.00
2019-05-07T01:32:34.794Z,0.00
2019-05-07T01:33:34.782Z,0.00
2019-05-07T01:34:34.778Z,0.00
2019-05-07T01:35:34.761Z,0.00
2019-05-07T01:36:34.752Z,0.00
2019-05-07T01:37:34.754Z,0.00
2019-05-07T01:38:34.731Z,0.00
2019-05-07T01:39:34.722Z,0.00
2019-05-07T01:40:34.712Z,0.00
2019-05-07T01:41:34.698Z,0.00
2019-05-07T01:42:36.586Z,0.00
2019-05-07T01:43:34.684Z,0.00
2019-05-07T01:44:34.668Z,0.00
2019-05-07T01:45:45.316Z,0.00
2019-05-07T01:46:35.643Z,0.00
2019-05-07T01:47:34.641Z,0.00
2019-05-07T01:48:34.619Z,0.00
2019-05-07T01:49:34.610Z,0.00
2019-05-07T01:50:34.606Z,0.00
2019-05-07T01:51:34.657Z,0.00
2019-05-07T01:52:34.608Z,0.00
2019-05-07T01:53:34.565Z,0.00
2019-05-07T01:54:34.570Z,0.00
2019-05-07T01:55:34.554Z,0.00
2019-05-07T01:56:34.538Z,0.00
2019-05-07T01:57:34.528Z,0.00
2019-05-07T01:58:34.522Z,0.00
2019-05-07T01:59:34.507Z,0.00
2019-05-07T02:00:34.496Z,0.00
2019-05-07T02:01:35.881Z,0.00
2019-05-07T02:02:34.475Z,0.00
2019-05-07T02:03:34.503Z,0.00
2019-05-07T02:04:34.455Z,0.00
2019-05-07T02:05:34.436Z,0.00
2019-05-07T02:06:34.427Z,0.00
2019-05-07T02:07:34.418Z,0.00
2019-05-07T02:08:34.425Z,0.00
2019-05-07T02:09:34.446Z,0.00
2019-05-07T02:10:34.383Z,0.00
2019-05-07T02:11:34.378Z,0.00
2019-05-07T02:12:34.365Z,0.00
2019-05-07T02:13:34.356Z,0.00
2019-05-07T02:14:34.350Z,0.00
2019-05-07T02:15:34.345Z,0.00
2019-05-07T02:16:34.322Z,0.00
2019-05-07T02:17:34.308Z,0.00
2019-05-07T02:18:34.358Z,0.00
2019-05-07T02:19:34.292Z,0.00
2019-05-07T02:20:34.283Z,0.00
2019-05-07T02:21:34.272Z,0.00
2019-05-07T02:22:34.259Z,0.00
2019-05-07T02:23:34.246Z,0.00
2019-05-07T02:24:34.240Z,0.00
2019-05-07T02:25:34.228Z,0.00
2019-05-07T02:26:34.222Z,0.00
2019-05-07T02:27:34.210Z,0.00
2019-05-07T02:28:34.189Z,0.00
2019-05-07T02:29:34.185Z,0.00
2019-05-07T02:30:35.320Z,0.00
2019-05-07T02:31:34.160Z,0.00
2019-05-07T02:32:34.144Z,0.00
2019-05-07T02:33:35.096Z,0.00
2019-05-07T02:34:34.630Z,0.00
2019-05-07T02:35:34.115Z,0.00
2019-05-07T02:36:34.292Z,0.00
2019-05-07T02:37:47.057Z,0.00
2019-05-07T02:38:35.085Z,0.00
2019-05-07T02:39:34.097Z,0.00
2019-05-07T02:40:34.287Z,0.00
2019-05-07T02:41:34.076Z,0.00
2019-05-07T02:42:34.043Z,0.00
2019-05-07T02:43:34.069Z,0.00
2019-05-07T02:44:34.016Z,0.00
2019-05-07T02:45:34.035Z,0.00
2019-05-07T02:46:36.311Z,0.00
2019-05-07T02:47:34.030Z,0.00
2019-05-07T02:48:33.977Z,0.00
2019-05-07T02:49:33.969Z,0.00
2019-05-07T02:50:33.970Z,0.00
2019-05-07T02:51:33.952Z,0.00
2019-05-07T02:52:33.934Z,0.00
2019-05-07T02:53:33.996Z,0.00
2019-05-07T02:54:33.926Z,4.00
2019-05-07T02:55:33.922Z,4.00
2019-05-07T02:56:33.905Z,0.00
2019-05-07T02:57:34.383Z,4.00
2019-05-07T02:58:33.865Z,4.00
2019-05-07T02:59:33.982Z,4.00
2019-05-07T03:00:33.844Z,4.00
2019-05-07T03:01:33.984Z,4.00
2019-05-07T03:02:33.821Z,4.00
2019-05-07T03:03:33.881Z,4.00
2019-05-07T03:04:33.817Z,8.00
2019-05-07T03:05:35.012Z,4.00
2019-05-07T03:06:34.153Z,8.00
2019-05-07T03:07:33.902Z,8.00
2019-05-07T03:08:33.760Z,8.00
2019-05-07T03:09:33.756Z,12.00
2019-05-07T03:10:34.352Z,12.00
2019-05-07T03:11:34.146Z,12.00
2019-05-07T03:12:33.777Z,16.00
2019-05-07T03:13:34.020Z,20.00
2019-05-07T03:14:33.701Z,24.00
2019-05-07T03:15:33.766Z,20.00
2019-05-07T03:16:43.106Z,28.00
2019-05-07T03:17:34.667Z,32.00
2019-05-07T03:18:33.893Z,32.00
2019-05-07T03:19:33.643Z,36.00
2019-05-07T03:20:33.632Z,40.00
2019-05-07T03:21:33.615Z,44.00
2019-05-07T03:22:34.011Z,52.00
2019-05-07T03:23:34.225Z,60.00
2019-05-07T03:24:34.441Z,68.00
2019-05-07T03:25:34.010Z,76.00
2019-05-07T03:26:34.222Z,84.00
2019-05-07T03:27:34.302Z,88.00
2019-05-07T03:28:33.732Z,96.00
2019-05-07T03:29:33.683Z,100.00
2019-05-07T03:30:35.931Z,104.00
2019-05-07T03:31:36.442Z,108.00
2019-05-07T03:32:37.995Z,120.00
2019-05-07T03:33:36.744Z,136.00
2019-05-07T03:34:36.758Z,144.00
2019-05-07T03:35:37.328Z,156.00
2019-05-07T03:36:35.412Z,168.00
2019-05-07T03:37:36.346Z,184.00
2019-05-07T03:38:33.824Z,192.00
2019-05-07T03:39:33.917Z,196.00
2019-05-07T03:40:33.409Z,208.00
2019-05-07T03:41:33.409Z,220.00
2019-05-07T03:42:33.914Z,232.00
2019-05-07T03:43:33.423Z,252.00
2019-05-07T03:44:33.982Z,272.00
2019-05-07T03:45:33.652Z,292.00
2019-05-07T03:46:33.698Z,304.00
2019-05-07T03:47:33.379Z,312.00
2019-05-07T03:48:33.555Z,332.00
2019-05-07T03:49:34.201Z,360.00
2019-05-07T03:50:33.762Z,388.00
2019-05-07T03:51:33.304Z,404.00
2019-05-07T03:52:33.721Z,424.00
2019-05-07T03:53:34.101Z,452.00
2019-05-07T03:54:34.062Z,476.00
2019-05-07T03:55:33.429Z,516.00
2019-05-07T03:56:33.237Z,576.00
2019-05-07T03:57:33.656Z,620.00
2019-05-07T03:58:33.936Z,656.00
2019-05-07T03:59:34.243Z,696.00
2019-05-07T04:00:33.551Z,716.00
2019-05-07T04:01:33.563Z,752.00
2019-05-07T04:02:33.471Z,784.00
2019-05-07T04:03:34.371Z,824.00
2019-05-07T04:04:33.449Z,864.00
2019-05-07T04:05:34.161Z,920.00
2019-05-07T04:06:33.365Z,960.00
2019-05-07T04:07:33.828Z,1008.00
2019-05-07T04:08:33.651Z,1044.00
2019-05-07T04:09:33.585Z,1068.00
2019-05-07T04:10:33.920Z,1108.00
2019-05-07T04:11:33.696Z,1164.00
2019-05-07T04:12:34.296Z,1236.00
2019-05-07T04:13:33.777Z,1332.00
2019-05-07T04:14:34.398Z,1428.00
2019-05-07T04:15:33.286Z,1532.00
2019-05-07T04:16:33.334Z,1624.00
2019-05-07T04:17:33.936Z,1716.00
2019-05-07T04:18:33.304Z,1820.00
2019-05-07T04:19:33.118Z,1924.00
2019-05-07T04:20:33.552Z,1980.00
2019-05-07T04:21:34.378Z,2060.00
2019-05-07T04:22:34.533Z,2160.00
2019-05-07T04:23:34.150Z,2276.00
2019-05-07T04:24:33.371Z,2364.00
2019-05-07T04:25:34.666Z,2436.00
2019-05-07T04:26:33.935Z,2520.00
2019-05-07T04:27:33.404Z,2604.00
2019-05-07T04:28:33.621Z,2692.00
2019-05-07T04:29:35.112Z,2756.00
2019-05-07T04:30:33.209Z,2880.00
2019-05-07T04:31:34.321Z,2980.00
2019-05-07T04:32:33.413Z,3036.00
2019-05-07T04:33:33.477Z,3032.00
2019-05-07T04:34:33.673Z,2972.00
2019-05-07T04:35:33.578Z,2868.00
2019-05-07T04:36:34.150Z,2816.00
2019-05-07T04:37:33.365Z,2780.00
2019-05-07T04:38:33.342Z,2832.00
2019-05-07T04:39:33.518Z,2956.00
2019-05-07T04:40:33.885Z,3036.00
2019-05-07T04:41:33.151Z,3140.00
2019-05-07T04:42:33.494Z,3240.00
2019-05-07T04:43:33.581Z,3100.00
2019-05-07T04:44:33.246Z,3080.00
2019-05-07T04:45:33.685Z,2860.00
2019-05-07T04:46:33.526Z,2620.00
2019-05-07T04:47:42.468Z,2396.00
2019-05-07T04:48:34.305Z,2364.00
2019-05-07T04:49:33.152Z,2380.00
2019-05-07T04:50:39.387Z,2700.00
2019-05-07T04:51:33.789Z,3052.00
2019-05-07T04:52:33.675Z,3468.00
2019-05-07T04:53:32.963Z,3500.00
2019-05-07T04:54:33.032Z,3704.00
2019-05-07T04:55:33.416Z,3892.00
2019-05-07T04:56:33.713Z,4484.00
2019-05-07T04:57:33.099Z,4868.00
2019-05-07T04:58:33.850Z,4780.00
2019-05-07T04:59:33.091Z,5100.00
2019-05-07T05:00:33.580Z,4832.00
2019-05-07T05:01:32.987Z,5496.00
2019-05-07T05:02:32.631Z,5948.00
2019-05-07T05:03:34.583Z,6056.00
2019-05-07T05:04:34.846Z,6404.00
2019-05-07T05:05:33.119Z,6940.00
2019-05-07T05:06:33.037Z,7168.00
2019-05-07T05:07:33.475Z,6768.00
2019-05-07T05:08:32.777Z,7260.00
2019-05-07T05:09:33.142Z,8644.00
2019-05-07T05:10:33.631Z,9944.00
2019-05-07T05:11:33.577Z,9608.00
2019-05-07T05:12:32.790Z,8664.00
2019-05-07T05:13:33.341Z,8020.00
2019-05-07T05:14:33.800Z,7356.00
2019-05-07T05:15:32.368Z,7008.00
2019-05-07T05:16:32.815Z,6732.00
2019-05-07T05:17:32.346Z,6540.00
2019-05-07T05:18:32.975Z,6492.00
2019-05-07T05:19:32.507Z,6524.00
2019-05-07T05:20:33.627Z,6576.00
2019-05-07T05:21:32.375Z,7180.00
2019-05-07T05:22:32.292Z,7648.00
2019-05-07T05:23:32.372Z,7924.00
2019-05-07T05:24:32.947Z,8076.00
2019-05-07T05:25:32.394Z,7744.00
2019-05-07T05:26:32.590Z,8156.00
2019-05-07T05:27:32.704Z,8172.00
2019-05-07T05:28:32.454Z,8312.00
2019-05-07T05:29:32.389Z,8524.00
2019-05-07T05:30:32.759Z,8484.00
2019-05-07T05:31:33.015Z,8464.00
2019-05-07T05:32:32.521Z,8232.00
2019-05-07T05:33:32.461Z,7600.00
2019-05-07T05:34:32.892Z,7028.00
2019-05-07T05:35:32.249Z,6880.00
2019-05-07T05:36:33.011Z,6288.00
2019-05-07T05:37:32.238Z,6096.00
2019-05-07T05:38:32.907Z,6216.00
2019-05-07T05:39:32.198Z,6160.00
2019-05-07T05:40:32.136Z,5600.00
2019-05-07T05:41:34.153Z,4836.00
2019-05-07T05:42:33.021Z,4492.00
2019-05-07T05:43:32.135Z,4388.00
2019-05-07T05:44:32.226Z,4448.00
2019-05-07T05:45:33.446Z,4492.00
2019-05-07T05:46:32.063Z,4704.00
2019-05-07T05:47:32.943Z,4908.00
2019-05-07T05:48:33.296Z,4832.00
2019-05-07T05:49:32.279Z,4980.00
2019-05-07T05:50:33.092Z,5268.00
2019-05-07T05:51:32.328Z,5048.00
2019-05-07T05:52:32.855Z,5628.00
2019-05-07T05:53:32.685Z,5412.00
2019-05-07T05:54:32.026Z,4988.00
2019-05-07T05:55:32.223Z,4716.00
2019-05-07T05:56:32.502Z,4600.00
2019-05-07T05:57:32.361Z,4748.00
2019-05-07T05:58:32.528Z,5836.00
2019-05-07T05:59:46.912Z,5272.00
2019-05-07T06:00:32.967Z,6440.00
2019-05-07T06:01:32.117Z,8592.00
2019-05-07T06:02:32.476Z,8788.00
2019-05-07T06:03:32.353Z,8848.00
2019-05-07T06:04:32.905Z,7436.00
2019-05-07T06:05:34.305Z,6376.00
2019-05-07T06:06:32.671Z,5452.00
2019-05-07T06:07:32.008Z,5172.00
2019-05-07T06:08:32.571Z,4764.00
2019-05-07T06:09:32.822Z,4352.00
2019-05-07T06:10:32.994Z,4444.00
2019-05-07T06:11:32.242Z,4944.00
2019-05-07T06:12:32.795Z,5076.00
2019-05-07T06:13:32.333Z,5512.00
2019-05-07T06:14:33.065Z,6784.00
2019-05-07T06:15:32.736Z,8140.00
2019-05-07T06:16:32.888Z,10008.00
2019-05-07T06:17:32.177Z,9260.00
2019-05-07T06:18:32.741Z,8672.00
2019-05-07T06:19:32.803Z,8756.00
2019-05-07T06:20:32.144Z,7088.00
2019-05-07T06:21:32.313Z,6404.00
2019-05-07T06:22:33.085Z,6632.00
2019-05-07T06:23:33.055Z,6900.00
2019-05-07T06:24:31.841Z,6088.00
2019-05-07T06:25:33.414Z,6156.00
2019-05-07T06:26:31.987Z,7008.00
2019-05-07T06:27:32.512Z,6372.00
2019-05-07T06:28:33.044Z,6288.00
2019-05-07T06:29:32.977Z,5988.00
2019-05-07T06:30:33.700Z,6584.00
2019-05-07T06:31:32.659Z,6560.00
2019-05-07T06:32:32.088Z,6872.00
2019-05-07T06:33:32.438Z,7044.00
2019-05-07T06:34:31.498Z,8000.00
2019-05-07T06:35:32.489Z,9788.00
2019-05-07T06:36:32.873Z,11208.00
2019-05-07T06:37:32.171Z,11724.00
2019-05-07T06:38:32.063Z,10352.00
2019-05-07T06:39:32.768Z,9144.00
2019-05-07T06:40:32.143Z,9000.00
2019-05-07T06:41:32.255Z,9532.00
2019-05-07T06:42:33.221Z,9928.00
2019-05-07T06:43:32.574Z,9480.00
2019-05-07T06:44:31.997Z,10548.00
2019-05-07T06:45:35.111Z,12772.00
2019-05-07T06:46:32.264Z,12492.00
2019-05-07T06:47:31.984Z,9676.00
2019-05-07T06:48:38.867Z,8120.00
2019-05-07T06:49:32.548Z,8368.00
2019-05-07T06:50:32.681Z,8044.00
2019-05-07T06:51:32.830Z,6800.00
2019-05-07T06:52:31.954Z,6032.00
2019-05-07T06:53:33.334Z,5308.00
2019-05-07T06:54:32.076Z,4644.00
2019-05-07T06:55:32.381Z,4624.00
2019-05-07T06:56:32.577Z,5220.00
2019-05-07T06:57:32.954Z,5888.00
2019-05-07T06:58:32.681Z,7372.00
2019-05-07T06:59:34.274Z,7644.00
2019-05-07T07:00:31.923Z,8772.00
2019-05-07T07:01:32.250Z,8536.00
2019-05-07T07:02:32.870Z,7904.00
2019-05-07T07:03:32.783Z,7348.00
2019-05-07T07:04:33.146Z,7560.00
2019-05-07T07:05:33.013Z,8052.00
2019-05-07T07:06:32.210Z,8952.00
2019-05-07T07:07:36.499Z,10144.00
2019-05-07T07:08:32.610Z,11432.00
2019-05-07T07:09:32.912Z,12128.00
2019-05-07T07:10:32.271Z,12936.00
2019-05-07T07:11:31.953Z,14320.00
2019-05-07T07:12:33.085Z,15336.00
2019-05-07T07:13:32.158Z,12740.00
2019-05-07T07:14:32.980Z,10008.00
2019-05-07T07:15:32.047Z,8464.00
2019-05-07T07:16:32.591Z,8476.00
2019-05-07T07:17:32.634Z,9800.00
2019-05-07T07:18:32.262Z,11476.00
2019-05-07T07:19:32.529Z,12036.00
2019-05-07T07:20:32.585Z,11368.00
2019-05-07T07:21:32.645Z,11576.00
2019-05-07T07:22:31.959Z,11644.00
2019-05-07T07:23:32.444Z,11824.00
2019-05-07T07:24:32.872Z,11108.00
2019-05-07T07:25:32.601Z,11316.00
2019-05-07T07:26:32.796Z,10440.00
2019-05-07T07:27:32.196Z,9060.00
2019-05-07T07:28:32.709Z,8356.00
2019-05-07T07:29:32.414Z,8736.00
2019-05-07T07:30:32.582Z,9188.00
2019-05-07T07:31:31.908Z,9436.00
2019-05-07T07:32:31.741Z,10532.00
2019-05-07T07:33:31.961Z,10776.00
2019-05-07T07:34:33.069Z,12180.00
2019-05-07T07:35:32.196Z,14472.00
2019-05-07T07:36:32.022Z,13860.00
2019-05-07T07:37:32.047Z,14948.00
2019-05-07T07:38:32.876Z,14448.00
2019-05-07T07:39:32.325Z,13748.00
2019-05-07T07:40:32.724Z,12124.00
2019-05-07T07:41:32.667Z,10048.00
2019-05-07T07:42:31.966Z,9132.00
2019-05-07T07:43:32.531Z,8780.00
2019-05-07T07:44:32.835Z,9576.00
2019-05-07T07:45:32.432Z,10556.00
2019-05-07T07:46:32.857Z,10444.00
2019-05-07T07:47:32.786Z,10320.00
2019-05-07T07:48:32.068Z,10320.00
2019-05-07T07:49:32.334Z,11048.00
2019-05-07T07:50:32.380Z,12680.00
2019-05-07T07:51:40.679Z,12860.00
2019-05-07T07:52:32.429Z,14256.00
2019-05-07T07:53:35.130Z,13940.00
2019-05-07T07:54:32.123Z,12932.00
2019-05-07T07:55:32.939Z,13288.00
2019-05-07T07:56:45.358Z,13348.00
2019-05-07T07:57:32.408Z,13696.00
2019-05-07T07:58:32.188Z,12772.00
2019-05-07T07:59:32.720Z,10648.00
2019-05-07T08:00:32.852Z,8708.00
2019-05-07T08:01:30.549Z,6616.00
2019-05-07T08:02:32.185Z,6704.00
2019-05-07T08:03:32.817Z,7840.00
2019-05-07T08:04:31.987Z,9344.00
2019-05-07T08:05:32.568Z,9564.00
2019-05-07T08:06:32.566Z,9776.00
2019-05-07T08:07:32.952Z,9620.00
2019-05-07T08:08:31.988Z,9240.00
2019-05-07T08:09:32.303Z,9456.00
2019-05-07T08:10:32.490Z,10108.00
2019-05-07T08:11:31.944Z,10860.00
2019-05-07T08:12:32.366Z,12504.00
2019-05-07T08:13:32.333Z,14564.00
2019-05-07T08:14:32.410Z,15544.00
2019-05-07T08:15:32.839Z,15132.00
2019-05-07T08:16:32.619Z,15628.00
2019-05-07T08:17:32.520Z,16252.00
2019-05-07T08:18:32.615Z,26720.00
2019-05-07T08:19:32.503Z,37888.00
2019-05-07T08:20:32.421Z,47648.00
2019-05-07T08:21:30.329Z,12348.00
2019-05-07T08:22:30.320Z,12716.00
2019-05-07T08:23:31.960Z,14288.00
2019-05-07T08:24:32.067Z,18112.00
2019-05-07T08:25:32.139Z,45440.00
2019-05-07T08:26:32.222Z,83648.00
2019-05-07T08:27:32.441Z,82752.00
2019-05-07T08:28:31.981Z,25472.00
2019-05-07T08:29:32.286Z,13424.00
2019-05-07T08:30:30.225Z,14244.00
2019-05-07T08:31:32.078Z,10488.00
2019-05-07T08:32:32.524Z,10344.00
2019-05-07T08:33:32.179Z,10452.00
2019-05-07T08:34:31.946Z,10408.00
2019-05-07T08:35:32.539Z,9152.00
2019-05-07T08:36:30.170Z,9476.00
2019-05-07T08:37:32.052Z,12412.00
2019-05-07T08:38:32.643Z,21088.00
2019-05-07T08:39:32.347Z,15748.00
2019-05-07T08:40:32.433Z,18240.00
2019-05-07T08:41:31.955Z,30048.00
2019-05-07T08:42:32.065Z,64480.00
2019-05-07T08:43:32.149Z,86464.00
2019-05-07T08:44:32.412Z,82496.00
2019-05-07T08:45:32.497Z,17216.00
2019-05-07T08:46:30.050Z,15060.00
2019-05-07T08:47:31.945Z,15640.00
2019-05-07T08:48:31.965Z,14996.00
2019-05-07T08:49:36.938Z,32064.00
2019-05-07T08:50:32.677Z,9340.00
2019-05-07T08:51:29.994Z,7904.00
2019-05-07T08:52:29.990Z,7088.00
2019-05-07T08:53:30.008Z,7216.00
2019-05-07T08:54:31.960Z,90016.00
2019-05-07T08:55:31.838Z,88672.00
2019-05-07T08:56:31.884Z,85216.00
2019-05-07T08:57:31.917Z,82496.00
2019-05-07T08:58:31.763Z,81408.00
2019-05-07T08:59:31.931Z,81344.00
2019-05-07T09:00:29.898Z,83104.00
2019-05-07T09:01:29.880Z,32992.00
2019-05-07T09:02:29.876Z,96352.00
2019-05-07T09:03:32.316Z,88608.00
2019-05-07T09:04:29.852Z,21664.00
2019-05-07T09:05:29.842Z,58080.00
2019-05-07T09:06:29.827Z,19136.00
2019-05-07T09:07:32.034Z,13732.00
2019-05-07T09:08:31.682Z,12176.00
2019-05-07T09:09:32.098Z,11852.00
2019-05-07T09:10:29.783Z,11708.00
2019-05-07T09:11:31.632Z,12072.00
2019-05-07T09:12:31.710Z,12992.00
2019-05-07T09:13:29.748Z,14496.00
2019-05-07T09:14:31.563Z,77120.00
2019-05-07T09:15:31.872Z,30080.00
2019-05-07T09:16:31.836Z,80928.00
2019-05-07T09:17:31.714Z,100064.00
2019-05-07T09:18:32.114Z,98560.00
2019-05-07T09:19:29.719Z,88320.00
2019-05-07T09:20:31.974Z,110624.00
2019-05-07T09:21:32.026Z,101824.00
2019-05-07T09:22:29.653Z,99808.00
2019-05-07T09:23:31.706Z,20736.00
2019-05-07T09:24:29.635Z,17024.00
2019-05-07T09:25:29.627Z,16532.00
2019-05-07T09:26:29.603Z,17440.00
2019-05-07T09:27:29.595Z,111040.00
2019-05-07T09:28:29.585Z,110624.00
2019-05-07T09:29:29.580Z,111968.00
2019-05-07T09:30:29.619Z,79200.00
2019-05-07T09:31:29.560Z,27264.00
2019-05-07T09:32:29.547Z,45760.00
2019-05-07T09:33:29.545Z,43584.00
2019-05-07T09:34:29.559Z,93568.00
2019-05-07T09:35:29.504Z,119520.00
2019-05-07T09:36:29.499Z,124448.00
2019-05-07T09:37:29.482Z,127264.00
2019-05-07T09:38:29.475Z,125376.00
2019-05-07T09:39:29.468Z,122816.00
2019-05-07T09:40:29.462Z,22816.00
2019-05-07T09:41:29.471Z,21824.00
2019-05-07T09:42:29.431Z,28896.00
2019-05-07T09:43:29.450Z,21536.00
2019-05-07T09:44:29.415Z,18016.00
2019-05-07T09:45:29.401Z,15288.00
2019-05-07T09:46:29.385Z,14904.00
2019-05-07T09:47:29.398Z,19648.00
2019-05-07T09:48:29.373Z,14096.00
2019-05-07T09:49:29.363Z,13424.00
2019-05-07T09:50:29.347Z,12324.00
2019-05-07T09:51:29.345Z,11960.00
2019-05-07T09:52:29.323Z,10664.00
2019-05-07T09:53:29.312Z,10796.00
2019-05-07T09:54:29.305Z,10224.00
2019-05-07T09:55:29.288Z,9696.00
2019-05-07T09:56:29.320Z,10092.00
2019-05-07T09:57:31.660Z,96288.00
2019-05-07T09:58:36.642Z,113376.00
2019-05-07T09:59:32.348Z,111200.00
2019-05-07T10:00:29.235Z,109120.00
2019-05-07T10:01:29.221Z,109728.00
2019-05-07T10:02:29.222Z,109440.00
2019-05-07T10:03:29.211Z,108000.00
2019-05-07T10:04:29.194Z,105888.00
2019-05-07T10:05:29.178Z,107232.00
2019-05-07T10:06:29.170Z,108128.00
2019-05-07T10:07:29.198Z,108352.00
2019-05-07T10:08:29.156Z,112960.00
2019-05-07T10:09:29.143Z,116928.00
2019-05-07T10:10:29.133Z,116928.00
2019-05-07T10:11:29.114Z,115072.00
2019-05-07T10:12:29.111Z,115200.00
2019-05-07T10:13:29.103Z,115552.00
2019-05-07T10:14:29.085Z,99104.00
2019-05-07T10:15:29.085Z,113120.00
2019-05-07T10:16:29.065Z,96000.00
2019-05-07T10:17:29.054Z,16736.00
2019-05-07T10:18:29.042Z,15256.00
2019-05-07T10:19:29.039Z,14268.00
2019-05-07T10:20:29.058Z,13912.00
2019-05-07T10:21:29.010Z,13132.00
2019-05-07T10:22:29.002Z,13344.00
2019-05-07T10:23:28.982Z,14992.00
2019-05-07T10:24:28.972Z,16304.00
2019-05-07T10:25:28.984Z,19072.00
2019-05-07T10:26:28.962Z,23200.00
2019-05-07T10:27:28.952Z,116448.00
2019-05-07T10:28:28.929Z,110880.00
2019-05-07T10:29:28.921Z,103616.00
2019-05-07T10:30:28.913Z,105888.00
2019-05-07T10:31:28.913Z,107648.00
2019-05-07T10:32:28.913Z,106464.00
2019-05-07T10:33:28.876Z,106592.00
2019-05-07T10:34:28.901Z,109440.00
2019-05-07T10:35:31.079Z,107264.00
2019-05-07T10:36:28.944Z,106176.00
2019-05-07T10:37:28.833Z,108096.00
2019-05-07T10:38:28.830Z,111744.00
2019-05-07T10:39:28.814Z,109440.00
2019-05-07T10:40:28.807Z,30368.00
2019-05-07T10:41:28.825Z,115904.00
2019-05-07T10:42:28.818Z,98880.00
2019-05-07T10:43:28.776Z,21440.00
2019-05-07T10:44:28.758Z,85312.00
2019-05-07T10:45:28.778Z,111328.00
2019-05-07T10:46:28.774Z,46752.00
2019-05-07T10:47:28.731Z,61344.00
2019-05-07T10:48:28.718Z,109504.00
2019-05-07T10:49:28.707Z,107552.00
2019-05-07T10:50:36.258Z,107520.00
2019-05-07T10:51:29.688Z,105792.00
2019-05-07T10:52:28.670Z,104736.00
2019-05-07T10:53:28.685Z,105536.00
2019-05-07T10:54:28.715Z,114368.00
2019-05-07T10:55:28.655Z,31200.00
2019-05-07T10:56:28.645Z,27456.00
2019-05-07T10:57:28.635Z,34944.00
2019-05-07T10:58:28.609Z,29312.00
2019-05-07T10:59:28.598Z,27360.00
2019-05-07T11:00:28.590Z,96928.00
2019-05-07T11:01:28.571Z,26976.00
2019-05-07T11:02:28.584Z,24992.00
2019-05-07T11:03:28.650Z,25920.00
2019-05-07T11:04:39.317Z,22144.00
2019-05-07T11:05:29.828Z,22688.00
2019-05-07T11:06:28.524Z,37952.00
2019-05-07T11:07:28.529Z,23072.00
2019-05-07T11:08:28.514Z,21216.00
2019-05-07T11:09:28.493Z,20512.00
2019-05-07T11:10:28.485Z,87616.00
2019-05-07T11:11:28.475Z,18528.00
2019-05-07T11:12:28.525Z,20928.00
2019-05-07T11:13:28.446Z,103648.00
2019-05-07T11:14:28.438Z,20864.00
2019-05-07T11:15:28.431Z,23648.00
2019-05-07T11:16:28.411Z,31200.00
2019-05-07T11:17:28.407Z,88896.00
2019-05-07T11:18:28.438Z,99680.00
2019-05-07T11:19:28.383Z,108544.00
2019-05-07T11:20:28.366Z,112928.00
2019-05-07T11:21:28.354Z,99360.00
2019-05-07T11:22:28.349Z,26784.00
2019-05-07T11:23:28.338Z,92960.00
2019-05-07T11:24:28.337Z,112672.00
2019-05-07T11:25:28.328Z,111040.00
2019-05-07T11:26:28.353Z,107616.00
2019-05-07T11:27:28.331Z,105856.00
2019-05-07T11:28:28.282Z,105056.00
2019-05-07T11:29:28.285Z,106560.00
2019-05-07T11:30:28.258Z,103648.00
2019-05-07T11:31:28.264Z,100416.00
2019-05-07T11:32:28.240Z,99552.00
2019-05-07T11:33:28.245Z,105376.00
2019-05-07T11:34:28.213Z,114304.00
2019-05-07T11:35:28.210Z,118208.00
2019-05-07T11:36:28.192Z,116544.00
2019-05-07T11:37:28.193Z,118048.00
2019-05-07T11:38:28.176Z,91040.00
2019-05-07T11:39:28.163Z,114112.00
2019-05-07T11:40:28.185Z,47968.00
2019-05-07T11:41:28.148Z,22624.00
2019-05-07T11:42:28.136Z,20384.00
2019-05-07T11:43:28.123Z,16576.00
2019-05-07T11:44:28.111Z,15688.00
2019-05-07T11:45:28.114Z,15064.00
2019-05-07T11:46:28.111Z,14672.00
2019-05-07T11:47:28.082Z,15296.00
2019-05-07T11:48:28.077Z,16272.00
2019-05-07T11:49:28.056Z,16160.00
2019-05-07T11:50:28.060Z,16100.00
2019-05-07T11:51:28.047Z,16368.00
2019-05-07T11:52:28.020Z,16952.00
2019-05-07T11:53:28.015Z,22656.00
2019-05-07T11:54:28.018Z,110688.00
2019-05-07T11:55:28.046Z,27552.00
2019-05-07T11:56:28.003Z,117152.00
2019-05-07T11:57:27.971Z,117376.00
2019-05-07T11:58:27.960Z,113088.00
2019-05-07T11:59:27.947Z,15956.00
2019-05-07T12:00:27.943Z,18336.00
2019-05-07T12:01:43.065Z,12796.00
2019-05-07T12:02:28.946Z,13420.00
2019-05-07T12:03:27.908Z,19104.00
2019-05-07T12:04:28.172Z,113856.00
2019-05-07T12:05:27.888Z,15240.00
2019-05-07T12:06:27.884Z,15508.00
2019-05-07T12:07:27.900Z,17760.00
2019-05-07T12:08:40.985Z,15320.00
2019-05-07T12:09:28.837Z,15512.00
2019-05-07T12:10:27.834Z,54240.00
2019-05-07T12:11:27.817Z,107520.00
2019-05-07T12:12:27.802Z,109184.00
2019-05-07T12:13:27.809Z,106272.00
2019-05-07T12:14:31.559Z,104896.00